To NAV CANADA Home Page Login to a new session Search on AWWS site Feedback and Comments Disclaimer Vers la page française équivalente Tips FAQ What's new on the site To the Forecasts and Observations / NOTAM section To "File a Flight Plan" website Publications and other links Update of the User's profile FIC Telephone Numbers My Weather Data Folder Route Weather Data Regional Weather Data Local Weather Data To the Forecasts and Observations / NOTAM section
Request Generated 03/27/2015 at 13:11:12 UTC . Weather information available at that time is displayed.

METAR/TAF

NATASHQUAN/QC    (show WxCam)

SPECI CYNA 271307Z AUTO 30004KT 9SM OVC005 M02/M03 A2956 RMK SLP010=
METAR CYNA 271300Z AUTO 30003KT 9SM OVC003 M02/M03 A2956 RMK SLP009=
METAR CYNA 271200Z AUTO 33006KT 9SM OVC003 M02/M03 A2954 RMK SLP005=
SPECI CYNA 271136Z AUTO 31004KT 9SM OVC003 M02/M03 A2953 RMK SLP002=
METAR CYNA 271100Z AUTO 32006KT 9SM OVC005 M02/M02 A2952 RMK PRESFR
SLP997=

TAF AMD CYNA 271202Z 2712/2720 32005KT 5SM BR OVC003
BECMG 2712/2714 6SM BR SCT003
FM271400 30007KT P6SM SCT015 TEMPO 2714/2716 BKN015
BECMG 2714/2716 26010KT
RMK FCST BASED ON AUTO OBS. NXT FCST BY 271400Z=
Your time UTC time
Weather data provided by Environment Canada and NAV CANADA